• Join FlightAware (Why Join?)
  • Login
  • US Flag 
11:14PM EST


 

Airport Tracker/Info


-or-


 

Live Flight TrackerFlight Track Log ✈ AWI3780 ✈ 28-Apr-2013 ✈ KBTV - KPHL

Flight Track Log - Related Links

Times and Time Zones

All times are in EDT time to prevent confusion due to time zone crossing. See the AWI3780 flight status page for this flight to view local times or setup timezone preferences in your user account.

Time Position Orientation Groundspeed Altitude Reporting Facility
EDT Latitude Longitude Course Direction KTS MPH feet Rate Location/Type
04:22PM 44.0233 -73.3174 196° South  Level FlightAware Approximate
04:23PM 43.8756 -73.3757 195° South  Level FlightAware Approximate
04:23PM 44.3789 -73.2997 192° South 259 298 7,800  Level Boston Center
04:24PM 43.7273 -73.4304 195° South  Level FlightAware Approximate
04:24PM 44.3058 -73.3219 192° South 269 310 9,800  Level Boston Center
04:25PM 43.5790 -73.4848 194° South  Level FlightAware Approximate
04:25PM 44.2306 -73.3469 193° South 275 316 12,000  Level Boston Center
04:26PM 43.4298 -73.5345 194° South  Level FlightAware Approximate
04:26PM 44.1472 -73.3717 192° South 285 328 14,500  Level Boston Center
04:27PM 43.2819 -73.5906 196° South  Level FlightAware Approximate
04:27PM 44.0553 -73.3992 192° South 298 343 17,200  Level Boston Center
04:28PM 43.9675 -73.4294 194° South 317 365 18,900 1,500 Climbing Boston Center
04:29PM 43.8692 -73.4594 192° South 345 397 20,300 1,200 Climbing Boston Center
04:30PM 43.8003 -73.4814 193° South 356 410 21,300 1,320 Climbing Boston Center
04:31PM 43.6853 -73.5167 193° South 380 437 23,000 1,800 Climbing Boston Center
04:32PM 43.5619 -73.5517 192° South 380 437 24,900 1,500 Climbing Boston Center
04:33PM 43.4597 -73.5842 193° South 380 437 26,000 540 Climbing Boston Center
04:34PM 43.3550 -73.6167 193° South 386 444 26,000  Level Boston Center
04:35PM 43.3267 -73.7272 251° West 288 331 26,000  Level Boston Center
04:36PM 43.3317 -73.8358 274° West 283 326 26,000  Level Boston Center
04:37PM 43.3344 -73.9558 272° West 298 343 26,000  Level Boston Center
04:38PM 43.3347 -74.0758 270° West 309 356 26,000  Level Boston Center
04:39PM 43.3372 -74.1928 272° West 314 361 26,000  Level Boston Center
04:40PM 43.3417 -74.3100 273° West 319 367 26,000  Level Boston Center
04:41PM 43.3439 -74.4300 271° West 314 361 26,000  Level Boston Center
04:42PM 43.3481 -74.5472 273° West 309 356 26,000  Level Boston Center
04:43PM 43.2922 -74.6281 227° Southwest 281 323 26,000  Level Boston Center
04:44PM 43.2000 -74.6589 194° South 293 337 26,000  Level Boston Center
04:45PM 43.0972 -74.6922 193° South 323 372 26,000  Level Boston Center
04:46PM 43.0008 -74.7197 192° South 344 396 26,000  Level Boston Center
04:47PM 42.9042 -74.7503 193° South 355 409 26,000  Level Boston Center
04:48PM 42.8119 -74.7750 191° South 355 409 26,000  Level Boston Center
04:49PM 42.7175 -74.8056 193° South 355 409 26,000  Level Boston Center
04:50PM 42.6233 -74.8331 192° South 355 409 26,000  Level Boston Center
04:51PM 42.5308 -74.8603 192° South 355 409 26,000  Level Boston Center
04:52PM 42.4367 -74.8847 191° South 355 409 26,000 -480 Level Boston Center
04:54PM 42.2394 -74.9389 191° South 340 391 24,500 -1,080 Descending New York Center
04:55PM 42.1419 -74.9914 202° Southwest 340 391 22,600 -1,860 Descending New York Center
04:56PM 42.0625 -75.0561 211° Southwest 340 391 20,900 -1,740 Descending New York Center
04:57PM 41.9833 -75.1178 210° Southwest 340 391 19,200 -960 Descending New York Center
04:58PM 41.9167 -75.1747 212° Southwest 329 379 19,000 -120 Descending New York Center
04:59PM 41.8458 -75.2314 211° Southwest 318 366 19,000  Level New York Center
05:00PM 41.7683 -75.2956 212° Southwest 307 353 19,000 -360 Level New York Center
05:01PM 41.6997 -75.3494 210° Southwest 302 348 18,300 -1,200 Descending New York Center
05:02PM 41.6267 -75.4081 211° Southwest 314 361 16,600 -1,920 Descending New York Center
05:03PM 41.5600 -75.4617 211° Southwest 314 361 14,600 -1,980 Descending New York Center
05:04PM 41.4892 -75.5178 211° Southwest 314 361 12,700 -1,320 Descending New York Center
05:05PM 41.4181 -75.5764 212° Southwest 292 336 12,000 -360 Descending New York Center
05:06PM 41.3492 -75.6267 209° Southwest 277 319 12,000 -60 Level New York Center
05:07PM 41.2911 -75.6750 212° Southwest 277 319 11,900 -480 Descending New York Center
05:08PM 41.2111 -75.6911 189° South 271 312 11,100 -900 Descending New York Center
05:09PM 41.1406 -75.6889 179° South 278 320 10,200 -600 Descending New York Center
05:10PM 41.0572 -75.6883 180° South 278 320 10,000 -120 Descending New York Center
05:11PM 40.9822 -75.6883 180° South 273 314 10,000  Level New York Center
05:12PM 40.9072 -75.6883 180° South 273 314 10,000  Level New York Center
05:13PM 40.8386 -75.6861 179° South 273 314 10,000  Level New York Center
05:14PM 40.7686 -75.6619 165° South 267 307 10,000  Level New York Center
05:15PM 40.6958 -75.6103 152° Southeast 267 307 10,000  Level New York Center
05:16PM 40.6350 -75.5650 151° Southeast 273 314 10,000  Level New York Center
05:17PM 40.5683 -75.5167 151° Southeast 278 320 10,000  Level New York Center
05:18PM 40.4933 -75.4650 152° Southeast 278 320 10,000  Level New York Center
05:19PM 40.4264 -75.4194 153° Southeast 278 320 10,000 -300 Level New York Center
05:20PM 40.3539 -75.4039 171° South 266 306 9,500 -780 Descending New York Center
05:21PM 40.2925 -75.4322 199° South 254 292 8,500 -1,020 Descending New York Center
05:22PM 40.2225 -75.4631 199° South 266 306 7,500 -1,080 Descending New York Center
05:23PM 40.1458 -75.4986 200° South 273 314 6,500 -720 Descending New York Center
05:24PM 40.0803 -75.5267 198° South 262 302 6,100 -240 Descending New York Center
05:25PM 40.0186 -75.5522 198° South 240 276 6,100  Level New York Center
05:26PM 39.9678 -75.5703 195° South 212 244 6,100  Level New York Center
05:27PM 39.9183 -75.5561 168° South 190 219 6,100 -420 Level New York Center
05:28PM 39.8711 -75.5394 165° South 190 219 5,300 -1,020 Descending New York Center
05:29PM 39.8242 -75.5172 160° South 190 219 4,100 -1,320 Descending New York Center
05:30PM 39.8289 -75.4472 85° East 163 188 2,800 -1,320 Descending New York Center